createdAt,value
2019-04-07T16:50:53.938Z,16.05
2019-04-07T16:54:14.392Z,16.45
2019-04-07T16:57:38.616Z,15.70
2019-04-07T17:01:02.143Z,17.75
2019-04-07T17:04:25.691Z,16.65
2019-04-07T17:07:49.147Z,17.23
2019-04-07T17:11:12.864Z,15.72
2019-04-07T17:14:36.227Z,18.52
2019-04-07T17:18:00.274Z,17.30
2019-04-07T17:21:23.635Z,18.07
2019-04-07T17:24:47.803Z,16.45
2019-04-07T17:28:13.557Z,16.45
2019-04-07T17:31:36.410Z,18.05
2019-04-07T17:34:59.712Z,14.95
2019-04-07T17:38:26.389Z,17.15
2019-04-07T17:41:50.877Z,17.42
2019-04-07T17:45:35.463Z,18.30
2019-04-07T17:49:18.495Z,18.07
2019-04-07T17:53:01.289Z,17.65
2019-04-07T17:56:44.347Z,16.75
2019-04-07T18:00:28.028Z,17.07
2019-04-07T18:04:17.332Z,18.48
2019-04-07T18:08:19.882Z,16.50
2019-04-07T18:12:12.742Z,16.15
2019-04-07T18:15:45.577Z,16.93
2019-04-07T18:19:31.824Z,17.80
2019-04-07T18:23:08.646Z,17.05
2019-04-07T18:26:58.306Z,16.52
2019-04-07T18:30:38.165Z,15.68
2019-04-07T18:34:27.458Z,18.55
2019-04-07T18:38:04.393Z,16.70
2019-04-07T18:41:47.014Z,17.32
2019-04-07T18:45:46.293Z,16.57
2019-04-07T18:49:32.015Z,17.57
2019-04-07T18:53:10.366Z,17.35
2019-04-07T18:56:42.930Z,16.15
2019-04-07T19:00:37.913Z,18.65
2019-04-07T19:04:17.250Z,18.48
2019-04-07T19:08:00.589Z,17.45
2019-04-07T19:11:49.948Z,17.05
2019-04-07T19:15:30.404Z,18.35
2019-04-07T19:19:28.557Z,18.92
2019-04-07T19:23:15.238Z,18.30
2019-04-07T19:27:12.696Z,17.57
2019-04-07T19:30:46.565Z,18.10
2019-04-07T19:34:29.986Z,18.85
2019-04-07T19:38:20.979Z,18.23
2019-04-07T19:42:06.919Z,19.20
2019-04-07T19:45:39.281Z,19.32
2019-04-07T19:49:34.718Z,19.90
2019-04-07T19:53:51.424Z,18.50
2019-04-07T19:57:47.814Z,18.15
2019-04-07T20:01:26.872Z,19.10
2019-04-07T20:05:23.270Z,19.92
2019-04-07T20:09:11.980Z,19.42
2019-04-07T20:12:49.172Z,18.90
2019-04-07T20:16:26.250Z,18.70
2019-04-07T20:20:09.287Z,19.67
2019-04-07T20:23:56.469Z,18.70
2019-04-07T20:27:55.988Z,21.27
2019-04-07T20:31:27.805Z,21.62
2019-04-07T20:35:15.951Z,22.73
2019-04-07T20:38:45.032Z,22.35
2019-04-07T20:42:17.117Z,23.73
2019-04-07T20:46:09.324Z,23.00
2019-04-07T20:49:58.848Z,23.50
2019-04-07T20:53:41.803Z,26.33
2019-04-07T20:57:23.857Z,23.25
2019-04-07T21:01:09.019Z,23.32
2019-04-07T21:04:52.302Z,23.47
2019-04-07T21:08:40.370Z,24.75
2019-04-07T21:12:35.242Z,25.32
2019-04-07T21:16:29.518Z,23.12
2019-04-07T21:20:13.139Z,22.20
2019-04-07T21:24:05.924Z,24.70
2019-04-07T21:27:36.076Z,25.85
2019-04-07T21:31:20.382Z,24.90
2019-04-07T21:35:11.142Z,24.72
2019-04-07T21:39:00.392Z,25.20
2019-04-07T21:42:34.000Z,26.73
2019-04-07T21:46:07.977Z,24.90
2019-04-07T21:49:38.495Z,26.62
2019-04-07T21:53:18.491Z,27.40
2019-04-07T21:57:00.259Z,26.12
2019-04-07T22:00:45.498Z,27.65
2019-04-07T22:04:30.127Z,28.73
2019-04-07T22:07:57.898Z,27.05
2019-04-07T22:11:25.388Z,28.17
2019-04-07T22:14:47.576Z,26.68
2019-04-07T22:18:11.146Z,28.80
2019-04-07T22:21:34.499Z,28.45
2019-04-07T22:24:58.039Z,29.52
2019-04-07T22:28:21.444Z,29.20
2019-04-07T22:31:51.364Z,30.10
2019-04-07T22:35:15.046Z,29.75
2019-04-07T22:38:38.525Z,31.60
2019-04-07T22:42:02.223Z,30.02
2019-04-07T22:45:28.616Z,32.93
2019-04-07T22:48:50.657Z,30.82
2019-04-07T22:52:16.139Z,30.77
2019-04-07T22:55:39.905Z,31.85
2019-04-07T22:59:03.630Z,33.13
2019-04-07T23:02:27.625Z,30.17
2019-04-07T23:05:51.281Z,32.20
2019-04-07T23:09:15.507Z,32.78
2019-04-07T23:12:38.929Z,32.35
2019-04-07T23:16:10.592Z,30.27
2019-04-07T23:19:29.062Z,32.03
2019-04-07T23:22:52.419Z,31.07
2019-04-07T23:26:15.955Z,32.42
2019-04-07T23:29:39.216Z,32.88
2019-04-07T23:33:02.476Z,33.80
2019-04-07T23:36:26.329Z,32.45
2019-04-07T23:39:49.725Z,32.23
2019-04-07T23:43:13.259Z,31.40
2019-04-07T23:46:36.380Z,34.05
2019-04-07T23:49:59.520Z,32.33
2019-04-07T23:54:12.013Z,32.88
2019-04-07T23:57:35.976Z,33.90
